createdAt,value
2017-07-15T00:00:14.943Z,0
2017-07-15T00:01:25.311Z,0
2017-07-15T00:02:35.670Z,0
2017-07-15T00:03:45.769Z,0
2017-07-15T00:04:56.124Z,0
2017-07-15T00:06:06.468Z,0
2017-07-15T00:07:16.505Z,0
2017-07-15T00:08:26.890Z,0
2017-07-15T00:09:37.286Z,0
2017-07-15T00:10:47.807Z,0
2017-07-15T00:11:58.191Z,0
2017-07-15T00:13:08.561Z,0
2017-07-15T00:14:18.920Z,0
2017-07-15T00:15:29.284Z,0
2017-07-15T00:16:39.677Z,0
2017-07-15T00:17:50.064Z,0
2017-07-15T00:19:00.430Z,0
2017-07-15T00:20:10.488Z,0
2017-07-15T00:21:20.247Z,0
2017-07-15T00:22:30.271Z,0
2017-07-15T00:23:40.623Z,0
2017-07-15T00:24:50.973Z,0
2017-07-15T00:26:01.311Z,0
2017-07-15T00:27:11.719Z,0
2017-07-15T00:28:22.070Z,0
2017-07-15T00:29:32.430Z,0
2017-07-15T00:30:42.147Z,0
2017-07-15T00:31:52.188Z,0
2017-07-15T00:33:02.550Z,0
2017-07-15T00:34:12.897Z,0
2017-07-15T00:35:22.944Z,0
2017-07-15T00:36:33.303Z,0
2017-07-15T00:37:43.651Z,0
2017-07-15T00:38:53.751Z,0
2017-07-15T00:40:04.099Z,0
2017-07-15T00:41:14.139Z,0
2017-07-15T00:42:24.479Z,0
2017-07-15T00:43:34.854Z,0
2017-07-15T00:44:45.265Z,0
2017-07-15T00:45:55.632Z,0
2017-07-15T00:47:05.984Z,0
2017-07-15T00:48:16.329Z,0
2017-07-15T00:49:26.684Z,0
2017-07-15T00:50:37.090Z,0
2017-07-15T00:51:46.815Z,0
2017-07-15T00:52:56.853Z,0
2017-07-15T00:54:07.205Z,0
2017-07-15T00:55:16.921Z,0
2017-07-15T00:56:27.329Z,0
2017-07-15T00:57:37.682Z,0
2017-07-15T00:58:48.041Z,0
2017-07-15T00:59:58.398Z,0
2017-07-15T01:01:08.776Z,0
2017-07-15T01:02:19.127Z,0
2017-07-15T01:03:29.168Z,0
2017-07-15T01:04:39.538Z,0
2017-07-15T01:05:49.887Z,0
2017-07-15T01:06:59.922Z,0
2017-07-15T01:08:10.298Z,0
2017-07-15T01:09:20.640Z,0
2017-07-15T01:10:30.976Z,0
2017-07-15T01:11:41.010Z,0
2017-07-15T01:12:51.378Z,0
2017-07-15T01:14:01.490Z,0
2017-07-15T01:15:11.848Z,0
2017-07-15T01:16:22.218Z,0
2017-07-15T01:17:32.582Z,0
2017-07-15T01:18:42.936Z,0
2017-07-15T01:19:53.287Z,0
2017-07-15T01:21:03.006Z,0
2017-07-15T01:22:13.356Z,0
2017-07-15T01:23:23.699Z,0
2017-07-15T01:24:34.063Z,0
2017-07-15T01:25:44.412Z,0
2017-07-15T01:26:54.455Z,0
2017-07-15T01:28:04.486Z,0
2017-07-15T01:29:14.876Z,0
2017-07-15T01:30:25.231Z,0
2017-07-15T01:31:35.630Z,0
2017-07-15T01:32:45.975Z,0
2017-07-15T01:33:56.328Z,0
2017-07-15T01:35:06.360Z,0
2017-07-15T01:36:16.734Z,0
2017-07-15T01:37:27.147Z,0
2017-07-15T01:38:37.508Z,0
2017-07-15T01:39:47.531Z,0
2017-07-15T01:40:57.892Z,0
2017-07-15T01:42:07.918Z,0
2017-07-15T01:43:18.325Z,0
2017-07-15T01:44:28.028Z,0
2017-07-15T01:45:38.089Z,0
2017-07-15T01:46:48.136Z,0
2017-07-15T01:47:58.408Z,0
2017-07-15T01:49:08.489Z,0
2017-07-15T01:50:18.827Z,0
2017-07-15T01:51:29.164Z,0
2017-07-15T01:52:39.204Z,0
2017-07-15T01:53:49.551Z,0
2017-07-15T01:54:59.573Z,0
2017-07-15T01:56:09.916Z,0
2017-07-15T01:57:20.279Z,0
2017-07-15T01:58:30.633Z,0
2017-07-15T01:59:41.000Z,0
2017-07-15T02:00:50.725Z,0
2017-07-15T02:02:01.065Z,0
2017-07-15T02:03:11.117Z,0
2017-07-15T02:04:21.157Z,0
2017-07-15T02:05:31.500Z,0
2017-07-15T02:06:41.531Z,0
2017-07-15T02:07:51.891Z,0
2017-07-15T02:09:02.227Z,0
2017-07-15T02:10:12.585Z,0
2017-07-15T02:11:22.946Z,0
2017-07-15T02:12:33.294Z,0
2017-07-15T02:13:43.652Z,0
2017-07-15T02:14:53.678Z,0
2017-07-15T02:16:04.063Z,0
2017-07-15T02:17:14.420Z,0
2017-07-15T02:18:24.789Z,0
2017-07-15T02:19:34.508Z,0
2017-07-15T02:20:44.862Z,0
2017-07-15T02:21:55.220Z,0
2017-07-15T02:23:05.581Z,0
2017-07-15T02:24:15.922Z,0
2017-07-15T02:25:26.271Z,0
2017-07-15T02:26:36.308Z,0
2017-07-15T02:27:46.663Z,0
2017-07-15T02:28:56.684Z,0
2017-07-15T02:30:06.456Z,0
2017-07-15T02:31:16.487Z,0
2017-07-15T02:32:26.872Z,0
2017-07-15T02:33:36.897Z,0
2017-07-15T02:34:47.243Z,0
2017-07-15T02:35:57.318Z,0
2017-07-15T02:37:07.354Z,0
2017-07-15T02:38:17.694Z,0
2017-07-15T02:39:28.036Z,0
2017-07-15T02:40:38.365Z,0
2017-07-15T02:41:48.385Z,0
2017-07-15T02:42:58.100Z,0
2017-07-15T02:44:08.139Z,0
2017-07-15T02:45:18.498Z,0
2017-07-15T02:46:28.858Z,0
2017-07-15T02:47:39.259Z,0
2017-07-15T02:48:49.285Z,0
2017-07-15T02:49:59.326Z,0
2017-07-15T02:51:09.680Z,0
2017-07-15T02:52:20.034Z,0
2017-07-15T02:53:30.436Z,0
2017-07-15T02:54:40.798Z,0
2017-07-15T02:55:50.831Z,0
2017-07-15T02:57:01.177Z,0
2017-07-15T02:58:11.204Z,0
2017-07-15T02:59:21.607Z,0
2017-07-15T03:00:31.633Z,0
2017-07-15T03:01:41.985Z,0
2017-07-15T03:33:29.642Z,20
2017-07-15T03:34:39.348Z,25
2017-07-15T03:35:49.702Z,25
2017-07-15T03:37:00.063Z,25
2017-07-15T03:38:10.411Z,30
2017-07-15T03:39:20.161Z,30
2017-07-15T03:40:30.528Z,30
2017-07-15T03:41:40.866Z,35
2017-07-15T03:42:50.896Z,35
2017-07-15T03:44:01.250Z,35
2017-07-15T03:45:11.654Z,40
2017-07-15T03:46:21.997Z,40
2017-07-15T03:47:32.036Z,45
2017-07-15T03:48:42.389Z,45
2017-07-15T03:49:52.738Z,45
2017-07-15T03:51:03.155Z,50
2017-07-15T03:52:12.893Z,50
2017-07-15T03:53:22.924Z,50
2017-07-15T03:54:32.981Z,50
2017-07-15T03:55:42.687Z,55
2017-07-15T03:56:52.769Z,60
2017-07-15T03:58:02.790Z,65
2017-07-15T03:59:13.147Z,65
2017-07-15T04:00:23.500Z,70
2017-07-15T04:01:33.555Z,70
2017-07-15T04:02:43.938Z,75
2017-07-15T04:03:54.278Z,75
2017-07-15T04:05:04.638Z,80
2017-07-15T04:06:14.998Z,80
2017-07-15T04:07:25.360Z,80
2017-07-15T04:08:35.415Z,85
2017-07-15T04:09:45.763Z,85
2017-07-15T04:10:56.115Z,90
2017-07-15T04:12:06.147Z,90
2017-07-15T04:13:16.488Z,95
2017-07-15T04:14:26.859Z,95
2017-07-15T04:15:37.226Z,100
2017-07-15T04:16:47.575Z,100
2017-07-15T04:17:57.286Z,105
2017-07-15T04:19:07.633Z,105
2017-07-15T04:20:17.715Z,110
2017-07-15T04:21:28.068Z,115
2017-07-15T04:22:38.093Z,115
2017-07-15T04:23:48.443Z,115
2017-07-15T04:24:58.477Z,115
2017-07-15T04:26:08.927Z,125
2017-07-15T04:27:19.277Z,290
2017-07-15T04:28:29.626Z,455
2017-07-15T04:29:39.988Z,410
2017-07-15T04:30:50.011Z,425
2017-07-15T04:32:00.358Z,470
2017-07-15T04:33:10.704Z,460
2017-07-15T04:34:21.070Z,500
2017-07-15T04:35:31.435Z,420
2017-07-15T04:36:41.785Z,415
2017-07-15T04:37:51.867Z,425
2017-07-15T04:39:01.915Z,375
2017-07-15T04:40:12.266Z,290
2017-07-15T04:41:22.612Z,350
2017-07-15T04:42:32.677Z,245
2017-07-15T04:43:42.762Z,240
2017-07-15T04:44:52.793Z,155
2017-07-15T04:46:03.166Z,135
2017-07-15T04:47:13.211Z,150
2017-07-15T04:48:23.577Z,140
2017-07-15T04:49:33.660Z,160
2017-07-15T04:50:43.396Z,180
2017-07-15T04:51:53.771Z,185
2017-07-15T04:53:04.112Z,180
2017-07-15T04:54:14.479Z,165
2017-07-15T04:55:24.845Z,160
2017-07-15T04:56:34.565Z,195
2017-07-15T04:57:44.603Z,235
2017-07-15T04:58:54.619Z,255
2017-07-15T05:00:04.977Z,305
2017-07-15T05:01:15.388Z,310
2017-07-15T05:02:25.753Z,355
2017-07-15T05:03:36.112Z,315
2017-07-15T05:04:46.454Z,340
2017-07-15T05:05:56.191Z,300
2017-07-15T05:07:06.612Z,340
2017-07-15T05:08:16.959Z,325
2017-07-15T05:09:27.312Z,390
2017-07-15T05:10:37.669Z,325
2017-07-15T05:11:47.718Z,305
2017-07-15T05:12:58.107Z,315
2017-07-15T05:14:08.149Z,310
2017-07-15T05:15:17.860Z,310
2017-07-15T05:16:27.905Z,275
2017-07-15T05:17:37.939Z,140
2017-07-15T05:18:48.044Z,140
2017-07-15T05:19:58.111Z,140
2017-07-15T05:21:08.466Z,145
2017-07-15T05:22:18.796Z,155
2017-07-15T05:23:28.433Z,170
2017-07-15T05:24:38.809Z,170
2017-07-15T05:25:48.850Z,190
2017-07-15T05:26:59.212Z,180
2017-07-15T05:28:09.248Z,180
2017-07-15T05:29:19.610Z,180
2017-07-15T05:30:29.642Z,180
2017-07-15T05:31:39.672Z,180
2017-07-15T05:32:50.061Z,175
2017-07-15T05:34:00.407Z,180
2017-07-15T05:35:10.779Z,180
2017-07-15T05:36:20.866Z,185
2017-07-15T05:37:30.926Z,185
2017-07-15T05:38:41.289Z,190
2017-07-15T05:39:51.636Z,195
2017-07-15T05:41:01.997Z,200
2017-07-15T05:42:12.402Z,200
2017-07-15T05:43:22.741Z,190
2017-07-15T05:44:32.790Z,180
2017-07-15T05:45:43.139Z,180
2017-07-15T05:46:53.181Z,170
2017-07-15T05:48:03.609Z,165
2017-07-15T05:49:13.965Z,165
2017-07-15T05:50:24.325Z,155
2017-07-15T05:51:34.373Z,160
2017-07-15T05:52:44.721Z,170
2017-07-15T05:53:55.068Z,160
2017-07-15T05:55:05.427Z,160
2017-07-15T05:56:15.456Z,155
2017-07-15T05:57:25.522Z,155
2017-07-15T05:58:35.860Z,155
2017-07-15T05:59:46.263Z,155
2017-07-15T06:00:56.606Z,150
2017-07-15T06:02:06.954Z,135
2017-07-15T06:03:17.317Z,140
2017-07-15T06:04:27.343Z,130
2017-07-15T06:05:37.704Z,135
2017-07-15T06:06:48.052Z,140
2017-07-15T06:07:58.400Z,140
2017-07-15T06:09:08.756Z,140
2017-07-15T06:10:19.123Z,145
2017-07-15T06:11:29.227Z,150
2017-07-15T06:12:39.578Z,150
2017-07-15T06:13:49.617Z,150
2017-07-15T06:14:59.956Z,150
2017-07-15T06:16:10.308Z,150
2017-07-15T06:17:20.715Z,150
2017-07-15T06:18:30.760Z,150
2017-07-15T06:19:41.118Z,150
2017-07-15T06:20:51.485Z,155
2017-07-15T06:22:01.841Z,150
2017-07-15T06:23:11.856Z,150
2017-07-15T06:24:22.215Z,150
2017-07-15T06:25:32.242Z,150
2017-07-15T06:26:42.600Z,150
2017-07-15T06:27:52.625Z,155
2017-07-15T06:29:03.023Z,160
2017-07-15T06:30:13.049Z,160
2017-07-15T06:31:23.086Z,160
2017-07-15T06:32:33.126Z,165
2017-07-15T06:33:43.150Z,165
2017-07-15T06:34:53.542Z,170
2017-07-15T06:36:03.565Z,170
2017-07-15T06:37:13.919Z,175
2017-07-15T06:38:23.631Z,180
2017-07-15T06:39:33.647Z,180
2017-07-15T06:40:43.359Z,180
2017-07-15T06:41:53.730Z,185
2017-07-15T06:43:04.076Z,185
2017-07-15T06:44:14.096Z,190
2017-07-15T06:45:24.462Z,195
2017-07-15T06:46:34.878Z,205
2017-07-15T06:47:45.245Z,220
2017-07-15T06:48:54.960Z,230
2017-07-15T06:50:05.324Z,235
2017-07-15T06:51:15.666Z,240
2017-07-15T06:52:26.081Z,260
2017-07-15T06:53:36.430Z,250
2017-07-15T06:54:46.457Z,240
2017-07-15T06:55:56.186Z,245
2017-07-15T06:57:06.225Z,235
2017-07-15T06:58:16.310Z,235
2017-07-15T06:59:26.670Z,240
2017-07-15T07:00:37.030Z,245
2017-07-15T07:01:47.386Z,245
2017-07-15T07:02:57.423Z,235
2017-07-15T07:04:07.813Z,230
2017-07-15T07:05:17.860Z,220
2017-07-15T07:06:28.242Z,215
2017-07-15T07:07:37.966Z,210
2017-07-15T07:08:48.328Z,210
2017-07-15T07:09:58.745Z,205
2017-07-15T07:11:09.106Z,205
2017-07-15T07:12:19.147Z,200
2017-07-15T07:13:29.184Z,200
2017-07-15T07:14:39.224Z,195
2017-07-15T07:15:49.579Z,190
2017-07-15T07:16:59.618Z,185
2017-07-15T07:18:09.338Z,185
2017-07-15T07:19:19.732Z,180
2017-07-15T07:20:30.116Z,185
2017-07-15T07:21:40.520Z,190
2017-07-15T07:22:50.859Z,185
2017-07-15T07:24:01.197Z,185
2017-07-15T07:25:11.560Z,185
2017-07-15T07:26:21.921Z,190
2017-07-15T07:27:32.316Z,195
2017-07-15T07:28:42.670Z,205
2017-07-15T07:29:52.708Z,215
2017-07-15T07:31:03.074Z,220
2017-07-15T07:32:13.419Z,225
2017-07-15T07:33:23.511Z,225
2017-07-15T07:34:33.871Z,230
2017-07-15T07:35:44.240Z,235
2017-07-15T07:36:54.590Z,240
2017-07-15T07:38:04.632Z,245
2017-07-15T07:39:14.996Z,255
2017-07-15T07:40:25.344Z,255
2017-07-15T07:41:35.381Z,255
2017-07-15T07:42:45.736Z,260
2017-07-15T07:43:56.090Z,270
2017-07-15T07:45:06.446Z,275
2017-07-15T07:46:16.819Z,285
2017-07-15T07:47:27.174Z,285
2017-07-15T07:48:37.516Z,285
2017-07-15T07:49:47.552Z,280
2017-07-15T07:50:57.900Z,275
2017-07-15T07:52:07.946Z,275
2017-07-15T07:53:17.979Z,270
2017-07-15T07:54:28.010Z,270
2017-07-15T07:55:38.388Z,260
2017-07-15T07:56:48.434Z,260
2017-07-15T07:57:58.147Z,245
2017-07-15T07:59:08.503Z,235
2017-07-15T08:00:18.550Z,230
2017-07-15T08:01:28.578Z,220
2017-07-15T08:02:38.612Z,225
2017-07-15T08:03:48.980Z,205
2017-07-15T08:04:59.335Z,190
2017-07-15T08:06:09.697Z,180
2017-07-15T08:07:19.733Z,175
2017-07-15T08:08:29.766Z,180
2017-07-15T08:09:40.118Z,170
2017-07-15T08:10:50.474Z,165
2017-07-15T08:12:00.503Z,160
2017-07-15T08:13:10.882Z,155
2017-07-15T08:14:21.265Z,155
2017-07-15T08:15:31.611Z,150
2017-07-15T08:16:41.960Z,150
2017-07-15T08:17:52.330Z,150
2017-07-15T08:19:02.369Z,155
2017-07-15T08:20:12.450Z,155
2017-07-15T08:21:22.814Z,155
2017-07-15T08:22:33.157Z,160
2017-07-15T08:23:43.191Z,165
2017-07-15T08:24:53.541Z,170
2017-07-15T08:26:03.902Z,175
2017-07-15T08:27:14.253Z,180
2017-07-15T08:28:24.297Z,190
2017-07-15T08:29:34.663Z,200
2017-07-15T08:30:45.026Z,210
2017-07-15T08:31:55.058Z,220
2017-07-15T08:33:05.106Z,240
2017-07-15T08:34:15.152Z,260
2017-07-15T08:35:25.203Z,290
2017-07-15T08:36:35.577Z,325
2017-07-15T08:37:45.620Z,350
2017-07-15T08:38:56.019Z,345
2017-07-15T08:40:06.077Z,350
2017-07-15T08:41:16.437Z,335
2017-07-15T08:42:26.805Z,340
2017-07-15T08:43:37.218Z,325
2017-07-15T08:44:47.265Z,330
2017-07-15T08:45:57.621Z,325
2017-07-15T08:47:07.347Z,335
2017-07-15T08:48:17.725Z,330
2017-07-15T08:49:27.781Z,345
2017-07-15T08:50:38.139Z,335
2017-07-15T08:51:48.514Z,335
2017-07-15T08:52:58.897Z,340
2017-07-15T08:54:08.949Z,310
2017-07-15T08:55:19.345Z,305
2017-07-15T08:56:29.395Z,290
2017-07-15T08:57:39.505Z,280
2017-07-15T08:58:49.231Z,260
2017-07-15T08:59:59.583Z,245
2017-07-15T09:01:09.694Z,220
2017-07-15T09:02:19.726Z,195
2017-07-15T09:03:29.749Z,170
2017-07-15T09:04:40.116Z,150
2017-07-15T09:05:50.497Z,135
2017-07-15T09:07:00.668Z,120
2017-07-15T09:08:11.046Z,115
2017-07-15T09:09:21.394Z,110
2017-07-15T09:10:31.424Z,110
2017-07-15T09:11:41.484Z,115
2017-07-15T09:12:51.928Z,120
2017-07-15T09:14:02.290Z,125
2017-07-15T09:15:12.317Z,125
2017-07-15T09:16:22.350Z,130
2017-07-15T09:17:32.723Z,130
2017-07-15T09:18:42.806Z,125
2017-07-15T09:19:52.192Z,115
2017-07-15T09:21:01.911Z,105
2017-07-15T09:22:11.946Z,100
2017-07-15T09:23:21.981Z,90
2017-07-15T09:24:32.391Z,95
2017-07-15T09:25:42.432Z,95
2017-07-15T09:26:52.472Z,105
2017-07-15T09:28:02.816Z,115
2017-07-15T09:29:12.872Z,125
2017-07-15T09:30:23.283Z,140
2017-07-15T09:31:33.641Z,150
2017-07-15T09:32:44.006Z,170
2017-07-15T09:33:56.391Z,185
2017-07-15T09:35:08.579Z,215
2017-07-15T09:36:20.455Z,225
2017-07-15T09:37:33.217Z,235
2017-07-15T09:38:44.721Z,250
2017-07-15T09:39:56.777Z,295
2017-07-15T09:41:07.314Z,295
2017-07-15T09:42:17.946Z,365
2017-07-15T09:43:28.772Z,310
2017-07-15T09:44:40.181Z,300
2017-07-15T09:45:51.592Z,300
2017-07-15T09:47:04.806Z,285
2017-07-15T09:48:17.696Z,280
2017-07-15T09:49:28.110Z,280
2017-07-15T09:50:38.733Z,285
2017-07-15T09:51:48.851Z,295
2017-07-15T09:52:59.295Z,310
2017-07-15T09:54:09.469Z,320
2017-07-15T09:55:19.283Z,385
2017-07-15T09:56:29.367Z,365
2017-07-15T09:57:39.790Z,335
2017-07-15T09:58:51.399Z,385
2017-07-15T10:00:02.781Z,395
2017-07-15T10:01:14.129Z,370
2017-07-15T10:02:24.676Z,395
2017-07-15T10:03:35.104Z,375
2017-07-15T10:04:45.517Z,375
2017-07-15T10:05:55.962Z,355
2017-07-15T10:07:06.061Z,355
2017-07-15T10:08:17.293Z,350
2017-07-15T10:09:28.548Z,335
2017-07-15T10:10:39.639Z,320
2017-07-15T10:11:50.563Z,315
2017-07-15T10:13:00.612Z,325
2017-07-15T10:14:10.381Z,340
2017-07-15T10:15:20.448Z,355
2017-07-15T10:16:30.804Z,340
2017-07-15T10:17:41.197Z,335
2017-07-15T10:18:51.555Z,345
2017-07-15T10:20:01.649Z,370
2017-07-15T10:21:12.001Z,345
2017-07-15T10:22:22.051Z,360
2017-07-15T10:23:32.400Z,370
2017-07-15T10:24:42.763Z,380
2017-07-15T10:25:52.862Z,385
2017-07-15T10:27:02.903Z,385
2017-07-15T10:28:13.275Z,380
2017-07-15T10:29:23.637Z,395
2017-07-15T10:30:33.360Z,440
2017-07-15T10:31:44.019Z,425
2017-07-15T10:32:54.382Z,415
2017-07-15T10:34:04.429Z,420
2017-07-15T10:35:14.795Z,425
2017-07-15T10:36:24.832Z,425
2017-07-15T10:37:35.180Z,445
2017-07-15T10:38:45.561Z,420
2017-07-15T10:39:55.948Z,440
2017-07-15T10:41:06.354Z,415
2017-07-15T10:42:16.421Z,485
2017-07-15T10:43:26.478Z,455
2017-07-15T10:44:36.852Z,425
2017-07-15T10:45:47.206Z,475
2017-07-15T10:46:57.591Z,420
2017-07-15T10:48:07.631Z,445
2017-07-15T10:49:17.687Z,395
2017-07-15T10:50:28.042Z,405
2017-07-15T10:51:38.092Z,410
2017-07-15T10:52:48.151Z,370
2017-07-15T10:53:57.914Z,355
2017-07-15T10:55:07.974Z,375
2017-07-15T10:56:18.434Z,365
2017-07-15T10:57:28.870Z,360
2017-07-15T10:58:39.295Z,360
2017-07-15T10:59:49.691Z,365
2017-07-15T11:01:00.079Z,360
2017-07-15T11:02:10.453Z,365
2017-07-15T11:03:20.504Z,370
2017-07-15T11:04:30.889Z,380
2017-07-15T11:05:41.296Z,390
2017-07-15T11:06:51.360Z,385
2017-07-15T11:08:01.734Z,365
2017-07-15T11:09:12.102Z,335
2017-07-15T11:10:22.496Z,335
2017-07-15T11:11:32.870Z,365
2017-07-15T11:12:43.270Z,335
2017-07-15T11:13:53.625Z,340
2017-07-15T11:15:03.767Z,335
2017-07-15T11:16:14.137Z,365
2017-07-15T11:17:24.508Z,285
2017-07-15T11:18:34.580Z,275
2017-07-15T11:19:44.957Z,280
2017-07-15T11:20:55.540Z,325
2017-07-15T11:22:05.899Z,255
2017-07-15T11:23:15.969Z,240
2017-07-15T11:24:26.329Z,220
2017-07-15T11:25:36.382Z,210
2017-07-15T11:26:46.803Z,220
2017-07-15T11:27:57.160Z,230
2017-07-15T11:29:07.519Z,270
2017-07-15T11:30:17.875Z,225
2017-07-15T11:31:30.134Z,220
2017-07-15T11:32:40.697Z,205
2017-07-15T11:33:51.094Z,205
2017-07-15T11:35:01.514Z,210
2017-07-15T11:36:11.908Z,210
2017-07-15T11:37:22.307Z,210
2017-07-15T11:38:32.751Z,215
2017-07-15T11:39:43.427Z,225
2017-07-15T11:40:53.754Z,225
2017-07-15T11:42:03.521Z,230
2017-07-15T11:43:14.023Z,220
2017-07-15T11:44:24.489Z,230
2017-07-15T11:45:34.561Z,240
2017-07-15T11:46:44.600Z,245
2017-07-15T11:47:54.975Z,250
2017-07-15T11:49:05.363Z,285
2017-07-15T11:50:15.497Z,320
2017-07-15T11:51:25.891Z,325
2017-07-15T11:52:36.279Z,325
2017-07-15T11:53:48.569Z,330
2017-07-15T11:54:59.814Z,330
2017-07-15T11:56:14.035Z,340
2017-07-15T11:57:27.678Z,285
2017-07-15T11:58:40.316Z,280
2017-07-15T11:59:52.627Z,270
2017-07-15T12:01:04.047Z,335
2017-07-15T12:02:14.039Z,275
2017-07-15T12:03:24.552Z,220
2017-07-15T12:04:35.025Z,205
2017-07-15T12:05:45.440Z,190
2017-07-15T12:06:55.286Z,180
2017-07-15T12:08:05.708Z,165
2017-07-15T12:09:16.173Z,145
2017-07-15T12:10:26.624Z,125
2017-07-15T12:11:37.010Z,115
2017-07-15T12:12:47.535Z,105
2017-07-15T12:13:57.725Z,95
2017-07-15T12:15:08.141Z,80
2017-07-15T12:16:18.676Z,80
2017-07-15T12:17:29.085Z,75
2017-07-15T12:18:39.534Z,70
2017-07-15T12:19:49.618Z,75
2017-07-15T12:21:00.002Z,75
2017-07-15T12:22:10.385Z,80
2017-07-15T12:23:20.167Z,85
2017-07-15T12:24:30.615Z,80
2017-07-15T12:25:41.024Z,80
2017-07-15T12:26:51.497Z,85
2017-07-15T12:28:01.890Z,90
2017-07-15T12:29:12.290Z,100
2017-07-15T12:30:22.669Z,100
2017-07-15T12:31:32.793Z,100
2017-07-15T12:32:43.140Z,95
2017-07-15T12:33:53.498Z,95
2017-07-15T12:35:03.569Z,95
2017-07-15T12:36:13.621Z,100
2017-07-15T12:37:24.015Z,100
2017-07-15T12:38:34.369Z,100
2017-07-15T12:39:44.737Z,100
2017-07-15T12:40:54.787Z,90
2017-07-15T12:42:04.895Z,80
2017-07-15T12:43:15.262Z,75
2017-07-15T12:44:25.628Z,75
2017-07-15T12:45:35.667Z,75
2017-07-15T12:46:46.022Z,80
2017-07-15T12:47:56.063Z,85
2017-07-15T12:49:06.422Z,90
2017-07-15T12:50:16.487Z,95
2017-07-15T12:51:26.535Z,100
2017-07-15T12:52:36.922Z,105
2017-07-15T12:53:47.380Z,105
2017-07-15T12:54:57.751Z,110
2017-07-15T12:56:08.123Z,110
2017-07-15T12:57:18.505Z,110
2017-07-15T12:58:28.881Z,120
2017-07-15T12:59:39.312Z,125
2017-07-15T13:00:49.359Z,140
2017-07-15T13:01:59.712Z,155
2017-07-15T13:03:10.088Z,165
2017-07-15T13:04:20.131Z,185
2017-07-15T13:05:30.534Z,200
2017-07-15T13:06:40.902Z,215
2017-07-15T13:07:51.270Z,220
2017-07-15T13:09:01.428Z,220
2017-07-15T13:10:11.896Z,215
2017-07-15T13:11:22.709Z,210
2017-07-15T13:12:33.443Z,205
2017-07-15T13:13:44.169Z,205
2017-07-15T13:14:54.290Z,220
2017-07-15T13:16:04.809Z,220
2017-07-15T13:17:15.425Z,225
2017-07-15T13:18:25.541Z,225
2017-07-15T13:19:36.112Z,225
2017-07-15T13:20:46.714Z,215
2017-07-15T13:22:01.155Z,210
2017-07-15T13:23:16.361Z,205
2017-07-15T13:24:31.741Z,205
2017-07-15T13:25:49.090Z,210
2017-07-15T13:27:03.160Z,210
2017-07-15T13:28:18.845Z,205
2017-07-15T13:29:34.515Z,200
2017-07-15T13:30:48.388Z,200
2017-07-15T13:32:03.296Z,195
2017-07-15T13:33:18.263Z,190
2017-07-15T13:34:33.389Z,190
2017-07-15T13:35:49.074Z,190
2017-07-15T13:37:05.238Z,195
2017-07-15T13:38:22.654Z,195
2017-07-15T13:39:39.706Z,200
2017-07-15T13:40:55.157Z,210
2017-07-15T13:42:11.716Z,215
2017-07-15T13:43:27.219Z,215
2017-07-15T13:44:42.928Z,220
2017-07-15T13:45:56.469Z,235
2017-07-15T13:47:10.025Z,270
2017-07-15T13:48:27.601Z,245
2017-07-15T13:49:42.224Z,245
2017-07-15T13:50:53.693Z,250
2017-07-15T13:52:05.770Z,260
2017-07-15T13:53:19.840Z,240
2017-07-15T13:54:32.250Z,230
2017-07-15T13:55:47.197Z,215
2017-07-15T13:57:01.591Z,210
2017-07-15T13:58:14.330Z,215
2017-07-15T13:59:28.727Z,235
2017-07-15T14:00:43.829Z,220
2017-07-15T14:01:55.799Z,305
2017-07-15T14:03:10.133Z,230
2017-07-15T14:04:27.813Z,305
2017-07-15T14:05:41.521Z,290
2017-07-15T14:06:56.681Z,285
2017-07-15T14:08:11.389Z,280
2017-07-15T14:09:26.740Z,285
2017-07-15T14:10:42.712Z,285
2017-07-15T14:11:54.871Z,270
2017-07-15T14:13:08.575Z,295
2017-07-15T14:14:22.986Z,300
2017-07-15T14:15:37.004Z,245
2017-07-15T14:16:48.570Z,235
2017-07-15T14:18:01.264Z,280
2017-07-15T14:19:13.651Z,320
2017-07-15T14:20:28.413Z,325
2017-07-15T14:21:41.031Z,325
2017-07-15T14:22:57.006Z,325
2017-07-15T14:24:11.135Z,330
2017-07-15T14:25:26.821Z,325
2017-07-15T14:26:42.912Z,315
2017-07-15T14:27:58.278Z,310
2017-07-15T14:29:15.713Z,270
2017-07-15T14:30:30.479Z,215
2017-07-15T14:31:45.479Z,260
2017-07-15T14:33:02.882Z,220
2017-07-15T14:34:17.337Z,170
2017-07-15T14:35:31.416Z,150
2017-07-15T14:36:47.431Z,140
2017-07-15T14:38:03.092Z,130
2017-07-15T14:39:18.657Z,120
2017-07-15T14:40:33.815Z,120
2017-07-15T14:41:50.416Z,105
2017-07-15T14:43:08.187Z,95
2017-07-15T14:44:23.006Z,90
2017-07-15T14:45:38.878Z,80
2017-07-15T14:46:50.931Z,65
2017-07-15T14:48:01.327Z,50
2017-07-15T14:49:11.686Z,40
2017-07-15T14:50:22.065Z,30
2017-07-15T14:51:32.490Z,25
2017-07-15T14:52:42.851Z,25
2017-07-15T14:53:53.206Z,25
2017-07-15T14:55:03.745Z,30
2017-07-15T14:56:14.114Z,35
2017-07-15T14:57:24.545Z,35
2017-07-15T14:58:34.911Z,35
2017-07-15T14:59:45.310Z,40
2017-07-15T15:00:55.403Z,40
2017-07-15T15:02:05.797Z,45
2017-07-15T15:03:16.237Z,50
2017-07-15T15:04:26.603Z,55
2017-07-15T15:05:36.964Z,80
2017-07-15T15:06:47.060Z,105
2017-07-15T15:07:57.430Z,135
2017-07-15T15:09:07.859Z,140
2017-07-15T15:10:18.238Z,150
2017-07-15T15:11:28.623Z,150
2017-07-15T15:12:38.993Z,150
2017-07-15T15:13:49.041Z,150
2017-07-15T15:14:59.081Z,140
2017-07-15T15:16:09.442Z,125
2017-07-15T15:17:19.800Z,120
2017-07-15T15:18:30.159Z,105
2017-07-15T15:19:40.519Z,100
2017-07-15T15:20:50.950Z,95
2017-07-15T15:22:01.323Z,90
2017-07-15T15:23:11.389Z,90
2017-07-15T15:24:21.772Z,85
2017-07-15T15:25:31.829Z,80
2017-07-15T15:26:42.245Z,75
2017-07-15T15:27:52.628Z,75
2017-07-15T15:29:02.984Z,75
2017-07-15T15:30:13.345Z,65
2017-07-15T15:31:23.382Z,60
2017-07-15T15:32:33.148Z,55
2017-07-15T15:33:43.176Z,50
2017-07-15T15:34:53.213Z,50
2017-07-15T15:36:03.594Z,45
2017-07-15T15:37:13.947Z,45
2017-07-15T15:38:24.038Z,40
2017-07-15T15:39:34.390Z,45
2017-07-15T15:40:44.743Z,50
2017-07-15T15:41:54.795Z,60
2017-07-15T15:43:04.844Z,70
2017-07-15T15:44:15.245Z,75
2017-07-15T15:45:25.593Z,80
2017-07-15T15:46:35.993Z,80
2017-07-15T15:47:46.345Z,90
2017-07-15T15:48:56.378Z,105
2017-07-15T15:50:06.432Z,120
2017-07-15T15:51:16.463Z,140
2017-07-15T15:52:26.819Z,155
2017-07-15T15:53:36.867Z,160
2017-07-15T15:54:47.219Z,160
2017-07-15T15:55:57.261Z,155
2017-07-15T15:57:07.630Z,150
2017-07-15T15:58:18.000Z,160
2017-07-15T15:59:28.384Z,145
2017-07-15T16:00:38.761Z,150
2017-07-15T16:01:49.183Z,150
2017-07-15T16:02:59.543Z,150
2017-07-15T16:04:09.921Z,165
2017-07-15T16:05:20.300Z,155
2017-07-15T16:06:30.673Z,155
2017-07-15T16:07:40.836Z,145
2017-07-15T16:08:50.924Z,140
2017-07-15T16:10:01.320Z,145
2017-07-15T16:11:11.702Z,150
2017-07-15T16:12:22.024Z,150
2017-07-15T16:13:32.140Z,150
2017-07-15T16:14:42.530Z,170
2017-07-15T16:15:52.917Z,165
2017-07-15T16:17:03.336Z,155
2017-07-15T16:18:13.719Z,125
2017-07-15T16:19:24.155Z,120
2017-07-15T16:20:34.526Z,115
2017-07-15T16:21:44.900Z,110
2017-07-15T16:22:55.230Z,110
2017-07-15T16:24:05.601Z,110
2017-07-15T16:25:16.023Z,110
2017-07-15T16:26:26.398Z,110
2017-07-15T16:27:36.858Z,110
2017-07-15T16:28:47.257Z,110
2017-07-15T16:29:57.629Z,110
2017-07-15T16:31:08.077Z,110
2017-07-15T16:32:18.113Z,100
2017-07-15T16:33:28.474Z,95
2017-07-15T16:34:38.839Z,85
2017-07-15T16:35:48.909Z,80
2017-07-15T16:36:59.325Z,75
2017-07-15T16:38:09.694Z,70
2017-07-15T16:39:20.086Z,70
2017-07-15T16:40:30.459Z,70
2017-07-15T16:41:40.834Z,65
2017-07-15T16:42:51.267Z,60
2017-07-15T16:44:01.312Z,60
2017-07-15T16:45:11.682Z,55
2017-07-15T16:46:22.053Z,55
2017-07-15T16:47:32.432Z,65
2017-07-15T16:48:42.831Z,65
2017-07-15T16:49:53.227Z,65
2017-07-15T16:51:03.294Z,70
2017-07-15T16:52:13.346Z,70
2017-07-15T16:53:23.742Z,60
2017-07-15T16:54:33.859Z,65
2017-07-15T16:55:43.906Z,65
2017-07-15T16:56:54.294Z,65
2017-07-15T16:58:04.353Z,65
2017-07-15T16:59:14.463Z,65
2017-07-15T17:00:24.875Z,65
2017-07-15T17:01:35.279Z,65